Time;durP1;ratioP1;P1;durP2;ratioP2;P2;SDS_P1;SDS_P2;PMS_P1;PMS_P2;Temp;Humidity;BMP_temperature;BMP_pressure;BME280_temperature;BME280_humidity;BME280_pressure;Samples;Min_cycle;Max_cycle;Signal;HPM_P1;HPM_P2
2022/03/08 00:01:35;;;;;;;21.65;12.77;;;1.50;61.80;;;;;;5000101;28;20246;-83
2022/03/08 00:04:05;;;;;;;20.15;13.20;;;1.50;61.80;;;;;;4986677;28;20566;-83
2022/03/08 00:06:33;;;;;;;21.55;12.23;;;1.50;61.80;;;;;;4990941;28;20254;-83
2022/03/08 00:09:01;;;;;;;19.33;12.48;;;1.50;61.90;;;;;;5002285;28;20227;-83
2022/03/08 00:11:29;;;;;;;22.23;12.93;;;1.50;61.90;;;;;;4987413;28;20199;-83
2022/03/08 00:13:57;;;;;;;17.70;11.85;;;1.50;62.00;;;;;;4988967;28;20281;-83
2022/03/08 00:16:24;;;;;;;18.25;12.80;;;1.50;62.10;;;;;;4985078;28;20230;-82
2022/03/08 00:18:53;;;;;;;20.42;13.02;;;1.60;62.10;;;;;;4985864;28;20774;-82
2022/03/08 00:21:22;;;;;;;16.73;11.35;;;1.60;62.10;;;;;;4987016;28;20210;-82
2022/03/08 00:23:50;;;;;;;19.77;12.70;;;1.60;62.10;;;;;;4986062;28;20334;-83
2022/03/08 00:26:18;;;;;;;24.92;12.57;;;1.60;62.20;;;;;;4986947;28;20211;-82
2022/03/08 00:28:46;;;;;;;20.60;12.50;;;1.60;62.10;;;;;;4985340;28;20797;-81
2022/03/08 00:31:14;;;;;;;25.95;13.38;;;1.60;62.20;;;;;;5001492;28;20862;-81
2022/03/08 00:33:42;;;;;;;23.95;15.70;;;1.60;62.20;;;;;;4984348;28;20590;-81
2022/03/08 00:36:10;;;;;;;19.15;13.02;;;1.60;62.20;;;;;;5001728;28;20206;-81
2022/03/08 00:38:39;;;;;;;21.85;13.70;;;1.60;62.20;;;;;;4986732;28;20634;-80
2022/03/08 00:41:07;;;;;;;24.92;14.93;;;1.60;62.20;;;;;;4991194;28;20218;-81
2022/03/08 00:43:35;;;;;;;24.13;14.32;;;1.60;62.10;;;;;;4982397;28;20238;-81
2022/03/08 00:46:03;;;;;;;26.05;13.88;;;1.50;62.10;;;;;;4977525;28;20246;-80
2022/03/08 00:48:32;;;;;;;22.00;14.30;;;1.40;62.00;;;;;;4984678;28;20218;-81
2022/03/08 00:51:01;;;;;;;21.20;14.73;;;1.30;62.10;;;;;;4980501;28;20639;-81
2022/03/08 00:53:29;;;;;;;24.85;15.85;;;1.20;62.30;;;;;;4987798;28;20230;-81
2022/03/08 00:55:58;;;;;;;26.65;17.33;;;1.20;62.50;;;;;;4986619;28;20210;-81
2022/03/08 00:58:26;;;;;;;28.48;19.23;;;1.30;62.60;;;;;;4987522;28;20304;-81
2022/03/08 01:00:54;;;;;;;24.05;16.27;;;1.30;62.70;;;;;;5002914;28;20241;-81
2022/03/08 01:03:23;;;;;;;30.73;18.70;;;1.30;62.80;;;;;;4987714;28;20219;-82
2022/03/08 01:05:51;;;;;;;43.13;22.90;;;1.40;62.80;;;;;;4990448;28;20222;-79
2022/03/08 01:08:19;;;;;;;42.50;22.35;;;1.40;62.80;;;;;;4991520;28;20289;-81
2022/03/08 01:10:47;;;;;;;41.53;19.30;;;1.40;62.80;;;;;;4992309;28;20206;-80
2022/03/08 01:13:17;;;;;;;47.35;23.50;;;1.40;62.70;;;;;;5005829;28;20207;-81
2022/03/08 01:15:44;;;;;;;42.33;19.83;;;1.40;62.70;;;;;;4992496;28;20225;-82
2022/03/08 01:18:13;;;;;;;32.92;16.20;;;1.40;62.80;;;;;;5007985;28;20269;-83
2022/03/08 01:20:41;;;;;;;23.17;14.02;;;1.40;62.80;;;;;;4993680;28;20195;-81
2022/03/08 01:23:09;;;;;;;23.75;15.00;;;1.40;62.80;;;;;;4987548;28;20226;-83
2022/03/08 01:25:40;;;;;;;24.90;15.23;;;1.40;62.70;;;;;;4992770;28;20231;-81
2022/03/08 01:28:08;;;;;;;25.15;14.60;;;1.30;62.60;;;;;;4986698;28;20261;-82
2022/03/08 01:30:37;;;;;;;23.52;14.43;;;1.20;62.70;;;;;;4983655;28;20743;-81
2022/03/08 01:33:06;;;;;;;19.70;13.43;;;1.20;62.80;;;;;;4985440;28;20581;-82
2022/03/08 01:35:34;;;;;;;20.90;12.75;;;1.20;62.70;;;;;;4986593;28;20201;-82
2022/03/08 01:38:03;;;;;;;21.58;13.27;;;1.20;62.80;;;;;;4983761;28;20226;-81
2022/03/08 01:40:31;;;;;;;20.67;13.70;;;1.20;62.80;;;;;;4984597;28;20199;-82
2022/03/08 01:43:01;;;;;;;23.52;12.77;;;1.10;62.70;;;;;;4983474;28;20664;-82
2022/03/08 01:45:29;;;;;;;25.02;16.17;;;1.00;62.60;;;;;;4995497;28;20230;-83
2022/03/08 01:47:58;;;;;;;22.23;15.00;;;1.00;62.70;;;;;;4998483;28;20210;-84
2022/03/08 01:50:27;;;;;;;23.77;15.30;;;1.00;62.80;;;;;;4985744;28;20218;-82
2022/03/08 01:52:55;;;;;;;22.65;14.40;;;1.00;62.90;;;;;;4999734;28;20583;-81
2022/03/08 01:55:25;;;;;;;28.63;16.58;;;1.00;62.90;;;;;;4985720;28;20202;-84
2022/03/08 01:57:53;;;;;;;30.58;17.63;;;0.90;62.90;;;;;;4985770;28;20202;-84
2022/03/08 02:00:26;;;;;;;28.20;18.60;;;0.90;63.10;;;;;;4998051;28;20222;-85
2022/03/08 02:02:55;;;;;;;31.42;17.88;;;0.90;63.20;;;;;;4983727;28;20233;-81
2022/03/08 02:05:26;;;;;;;38.30;20.30;;;0.90;63.20;;;;;;4984554;28;20285;-82
2022/03/08 02:07:54;;;;;;;60.05;25.77;;;1.00;63.30;;;;;;4983876;28;20223;-81
2022/03/08 02:10:22;;;;;;;68.07;26.98;;;1.00;63.20;;;;;;4976022;28;20281;-82
2022/03/08 02:12:50;;;;;;;57.42;26.52;;;1.00;63.20;;;;;;4984376;28;20680;-79
2022/03/08 02:15:21;;;;;;;45.20;23.17;;;1.00;63.20;;;;;;4984239;28;20206;-82
2022/03/08 02:17:49;;;;;;;32.15;18.02;;;1.00;63.20;;;;;;4984992;28;20198;-79
2022/03/08 02:20:18;;;;;;;21.83;14.93;;;0.90;63.20;;;;;;4985286;28;20648;-81
2022/03/08 02:22:49;;;;;;;28.88;15.25;;;0.90;63.20;;;;;;4997229;28;20271;-79
2022/03/08 02:25:19;;;;;;;23.30;14.43;;;0.90;63.30;;;;;;4983885;28;20206;-79
2022/03/08 02:27:49;;;;;;;20.38;14.43;;;0.90;63.20;;;;;;4984718;28;20219;-80
2022/03/08 02:30:19;;;;;;;26.00;15.50;;;0.80;63.40;;;;;;4985068;28;20284;-80
2022/03/08 02:32:48;;;;;;;86.60;33.85;;;0.80;63.40;;;;;;4982747;28;20207;-80
2022/03/08 02:35:19;;;;;;;39.88;18.98;;;0.80;63.50;;;;;;4985232;28;20832;-79
2022/03/08 02:37:50;;;;;;;24.33;14.60;;;0.80;63.60;;;;;;4980150;28;20266;-80
2022/03/08 02:40:20;;;;;;;19.42;13.48;;;0.80;63.60;;;;;;4984699;28;20230;-80
2022/03/08 02:42:49;;;;;;;18.13;12.75;;;0.80;63.50;;;;;;4983227;28;20766;-80
2022/03/08 02:45:18;;;;;;;20.98;13.30;;;0.80;63.50;;;;;;4982389;28;20249;-80
2022/03/08 02:47:46;;;;;;;21.25;12.57;;;0.70;63.50;;;;;;4984289;28;20219;-80
2022/03/08 02:50:16;;;;;;;21.17;13.70;;;0.70;63.50;;;;;;4999694;28;20718;-80
2022/03/08 02:52:46;;;;;;;19.88;13.95;;;0.70;63.50;;;;;;4983493;28;20203;-80
2022/03/08 02:55:15;;;;;;;19.02;12.80;;;0.60;63.50;;;;;;4983048;28;20252;-81
2022/03/08 02:57:43;;;;;;;18.38;12.15;;;0.60;63.50;;;;;;4984659;28;20213;-81
2022/03/08 03:00:13;;;;;;;18.17;12.50;;;0.60;63.50;;;;;;4997955;28;20276;-81
2022/03/08 03:02:41;;;;;;;21.15;12.23;;;0.60;63.60;;;;;;4983638;28;20207;-81
2022/03/08 03:05:10;;;;;;;18.58;12.35;;;0.50;63.60;;;;;;4999901;28;20761;-82
2022/03/08 03:07:39;;;;;;;17.52;12.13;;;0.50;63.60;;;;;;4984027;28;20225;-81
2022/03/08 03:10:08;;;;;;;20.25;13.52;;;0.50;63.70;;;;;;4984519;28;20230;-81
2022/03/08 03:12:38;;;;;;;19.13;12.93;;;0.50;63.70;;;;;;4997027;28;20218;-81
2022/03/08 03:15:09;;;;;;;19.08;12.40;;;0.50;63.70;;;;;;4982899;28;20206;-84
2022/03/08 03:17:37;;;;;;;20.15;13.20;;;0.50;63.80;;;;;;4984143;28;20278;-82
2022/03/08 03:20:08;;;;;;;17.80;11.32;;;0.50;63.80;;;;;;4984494;28;20214;-82
2022/03/08 03:22:37;;;;;;;18.02;12.30;;;0.50;63.80;;;;;;4979799;28;20203;-82
2022/03/08 03:25:06;;;;;;;17.88;12.27;;;0.50;63.90;;;;;;4998329;28;20270;-82
2022/03/08 03:27:35;;;;;;;22.05;13.30;;;0.50;63.90;;;;;;4984684;28;20857;-82
2022/03/08 03:30:08;;;;;;;22.88;13.60;;;0.40;63.90;;;;;;4983465;28;20285;-82
2022/03/08 03:32:36;;;;;;;17.50;12.20;;;0.40;63.90;;;;;;4982527;28;20230;-82
2022/03/08 03:35:05;;;;;;;21.15;13.35;;;0.40;63.90;;;;;;4984225;28;20195;-81
2022/03/08 03:37:33;;;;;;;21.05;13.60;;;0.40;64.00;;;;;;4988074;28;20256;-80
2022/03/08 03:40:01;;;;;;;23.30;14.73;;;0.40;64.00;;;;;;4982595;28;20218;-82
2022/03/08 03:42:29;;;;;;;24.77;16.02;;;0.40;64.00;;;;;;4982608;28;20218;-82
2022/03/08 03:44:57;;;;;;;22.45;14.00;;;0.30;63.90;;;;;;4987339;28;20206;-83
2022/03/08 03:47:26;;;;;;;20.73;13.25;;;0.30;63.90;;;;;;4981653;28;20223;-83
2022/03/08 03:49:54;;;;;;;20.60;12.88;;;0.20;63.90;;;;;;4984015;28;20230;-82
2022/03/08 03:52:22;;;;;;;21.67;12.90;;;0.20;64.00;;;;;;4979357;28;20203;-82
2022/03/08 03:54:50;;;;;;;42.17;19.73;;;0.20;64.10;;;;;;4983585;28;20218;-81
2022/03/08 03:57:18;;;;;;;41.33;20.98;;;0.20;64.10;;;;;;4984928;28;20203;-81
2022/03/08 03:59:46;;;;;;;36.75;18.00;;;0.20;64.30;;;;;;4986009;28;21004;-81
2022/03/08 04:02:15;;;;;;;31.63;18.33;;;0.20;64.30;;;;;;4983915;28;20221;-82
2022/03/08 04:04:44;;;;;;;32.72;18.90;;;0.20;64.30;;;;;;4983475;28;20226;-83
2022/03/08 04:07:12;;;;;;;25.42;16.05;;;0.20;64.20;;;;;;4984403;28;20215;-81
2022/03/08 04:09:40;;;;;;;30.13;17.05;;;0.10;64.00;;;;;;4984314;28;20223;-82
2022/03/08 04:12:09;;;;;;;46.88;22.20;;;0.00;64.10;;;;;;5002219;28;20218;-82
2022/03/08 04:14:37;;;;;;;63.60;28.45;;;0.00;64.30;;;;;;4984999;28;20262;-80
2022/03/08 04:17:05;;;;;;;84.72;33.33;;;0.00;64.30;;;;;;4986930;28;20242;-82
2022/03/08 04:19:33;;;;;;;50.70;22.60;;;0.00;64.30;;;;;;4987814;28;20313;-82
2022/03/08 04:22:02;;;;;;;28.45;16.77;;;-0.10;64.30;;;;;;4987251;28;20210;-82
2022/03/08 04:24:30;;;;;;;26.58;16.52;;;-0.10;64.40;;;;;;4985214;28;20191;-82
2022/03/08 04:26:58;;;;;;;36.65;19.98;;;-0.10;64.40;;;;;;4985514;28;20257;-82
2022/03/08 04:29:26;;;;;;;30.15;16.88;;;-0.10;64.40;;;;;;4987701;28;20234;-79
2022/03/08 04:31:54;;;;;;;30.27;16.35;;;-0.10;64.50;;;;;;4986773;28;20238;-82
2022/03/08 04:34:22;;;;;;;30.13;16.60;;;-0.10;64.60;;;;;;4992592;28;20210;-82
2022/03/08 04:36:50;;;;;;;25.40;16.50;;;-0.10;64.60;;;;;;4986239;28;20213;-83
2022/03/08 04:39:19;;;;;;;32.72;15.07;;;0.00;64.60;;;;;;5002920;28;20234;-82
2022/03/08 04:41:47;;;;;;;25.80;14.48;;;0.00;64.60;;;;;;5003484;28;20210;-80
2022/03/08 04:44:15;;;;;;;23.70;15.38;;;-0.10;64.50;;;;;;4993619;28;20214;-81
2022/03/08 04:46:47;;;;;;;25.83;15.23;;;-0.10;64.40;;;;;;5005804;28;20232;-81
2022/03/08 04:49:15;;;;;;;21.75;13.55;;;-0.10;64.40;;;;;;4991046;28;20219;-81
2022/03/08 04:51:43;;;;;;;22.83;13.80;;;-0.10;64.50;;;;;;5006846;28;20218;-82
2022/03/08 04:54:11;;;;;;;21.20;14.30;;;-0.20;64.50;;;;;;4986471;28;20261;-81
2022/03/08 04:56:40;;;;;;;20.52;13.30;;;-0.20;64.50;;;;;;5002898;28;20199;-81
2022/03/08 04:59:08;;;;;;;25.27;13.73;;;-0.20;64.70;;;;;;4988150;28;20248;-82
2022/03/08 05:01:36;;;;;;;22.25;13.70;;;-0.20;64.70;;;;;;4986187;28;20238;-81
2022/03/08 05:04:05;;;;;;;23.35;14.43;;;-0.20;64.70;;;;;;5000784;28;20205;-82
2022/03/08 05:06:33;;;;;;;24.38;14.25;;;-0.20;64.70;;;;;;4986609;28;20241;-82
2022/03/08 05:09:01;;;;;;;20.92;13.95;;;-0.20;64.80;;;;;;4986204;28;20778;-83
2022/03/08 05:11:28;;;;;;;24.48;15.55;;;-0.20;64.80;;;;;;4984192;28;20265;-83
2022/03/08 05:13:58;;;;;;;25.02;16.10;;;-0.20;64.70;;;;;;4985440;28;20285;-82
2022/03/08 05:16:26;;;;;;;27.17;15.05;;;-0.20;64.60;;;;;;4985065;28;20230;-82
2022/03/08 05:18:54;;;;;;;23.17;14.63;;;-0.30;64.60;;;;;;5000100;28;20289;-83
2022/03/08 05:21:22;;;;;;;23.25;14.18;;;-0.30;64.70;;;;;;4982326;28;20791;-80
2022/03/08 05:23:50;;;;;;;30.88;15.93;;;-0.30;64.90;;;;;;4984097;28;20256;-80
2022/03/08 05:26:18;;;;;;;25.98;14.88;;;-0.30;64.90;;;;;;4985031;28;20787;-81
2022/03/08 05:28:46;;;;;;;21.63;15.52;;;-0.30;64.90;;;;;;4985062;28;20744;-82
2022/03/08 05:31:16;;;;;;;31.00;16.10;;;-0.30;64.80;;;;;;4999821;28;20595;-84
2022/03/08 05:33:44;;;;;;;28.52;15.98;;;-0.30;64.80;;;;;;4984017;28;20214;-84
2022/03/08 05:36:12;;;;;;;24.13;14.30;;;-0.30;64.80;;;;;;4980807;28;20207;-82
2022/03/08 05:38:40;;;;;;;23.27;14.45;;;-0.30;64.80;;;;;;4985708;28;20222;-83
2022/03/08 05:41:08;;;;;;;22.25;14.00;;;-0.30;64.80;;;;;;4988208;28;20687;-81
2022/03/08 05:43:35;;;;;;;22.77;14.70;;;-0.30;64.90;;;;;;4984845;28;20195;-82
2022/03/08 05:46:03;;;;;;;22.75;14.70;;;-0.30;64.80;;;;;;4989078;28;20234;-82
2022/03/08 05:48:33;;;;;;;22.80;14.43;;;-0.30;64.90;;;;;;4985848;28;20313;-82
2022/03/08 05:51:01;;;;;;;22.30;14.77;;;-0.40;65.00;;;;;;4984275;28;20198;-84
2022/03/08 05:53:29;;;;;;;21.13;14.13;;;-0.40;64.90;;;;;;4984718;28;20258;-83
2022/03/08 05:55:57;;;;;;;28.70;15.98;;;-0.40;64.90;;;;;;5000074;28;20199;-83
2022/03/08 05:58:31;;;;;;;132.20;43.55;;;-0.50;64.80;;;;;;5000192;28;20227;-84
2022/03/08 06:00:59;;;;;;;96.63;39.08;;;-0.60;64.70;;;;;;4988660;28;20227;-83
2022/03/08 06:03:27;;;;;;;71.47;30.83;;;-0.60;64.70;;;;;;4983178;28;20699;-83
2022/03/08 06:05:56;;;;;;;60.10;27.05;;;-0.70;64.80;;;;;;5000205;28;20218;-84
2022/03/08 06:08:25;;;;;;;37.92;21.98;;;-0.70;65.00;;;;;;4988441;28;20896;-81
2022/03/08 06:10:53;;;;;;;45.50;21.63;;;-0.70;65.30;;;;;;4984929;28;20206;-82
2022/03/08 06:13:21;;;;;;;44.13;22.90;;;-0.60;65.40;;;;;;4999160;28;20195;-82
2022/03/08 06:15:49;;;;;;;47.25;25.52;;;-0.60;65.40;;;;;;4983640;28;20242;-82
2022/03/08 06:18:17;;;;;;;40.67;21.17;;;-0.60;65.40;;;;;;4983347;28;20202;-81
2022/03/08 06:20:45;;;;;;;35.35;19.35;;;-0.50;65.30;;;;;;4988034;28;20246;-82
2022/03/08 06:23:14;;;;;;;35.75;18.92;;;-0.50;65.40;;;;;;4983916;28;20203;-84
2022/03/08 06:25:43;;;;;;;35.20;18.33;;;-0.50;65.40;;;;;;4983991;28;20210;-81
2022/03/08 06:28:11;;;;;;;37.80;19.35;;;-0.50;65.50;;;;;;4984839;28;20620;-81
2022/03/08 06:30:39;;;;;;;29.05;17.25;;;-0.50;65.60;;;;;;4982507;28;20234;-82
2022/03/08 06:33:07;;;;;;;32.28;18.60;;;-0.40;65.70;;;;;;4983678;28;20198;-82
2022/03/08 06:35:35;;;;;;;30.10;18.70;;;-0.40;65.70;;;;;;4986147;28;20213;-81
2022/03/08 06:38:03;;;;;;;42.03;21.85;;;-0.30;65.70;;;;;;4980769;28;20203;-81
2022/03/08 06:40:33;;;;;;;35.30;19.42;;;-0.30;65.70;;;;;;4982920;28;20215;-81
2022/03/08 06:43:01;;;;;;;30.05;18.23;;;-0.30;65.80;;;;;;4983704;28;20210;-83
2022/03/08 06:45:29;;;;;;;36.38;18.58;;;-0.20;65.80;;;;;;4983614;28;20230;-84
2022/03/08 06:47:57;;;;;;;46.08;21.77;;;-0.20;66.00;;;;;;4984291;28;20202;-84
2022/03/08 06:50:25;;;;;;;54.83;26.77;;;0.00;66.10;;;;;;4979119;28;20226;-85
2022/03/08 06:52:53;;;;;;;41.85;21.85;;;0.00;66.10;;;;;;4985142;28;20199;-84
2022/03/08 06:55:21;;;;;;;46.72;20.80;;;0.10;66.10;;;;;;5000310;28;20202;-85
2022/03/08 06:57:50;;;;;;;34.95;18.10;;;0.20;66.20;;;;;;4984997;28;20198;-84
2022/03/08 07:00:20;;;;;;;33.53;18.85;;;0.30;66.30;;;;;;4999230;28;20229;-87
2022/03/08 07:02:48;;;;;;;29.33;16.48;;;0.30;66.30;;;;;;4983594;28;20218;-86
2022/03/08 07:05:16;;;;;;;25.98;14.82;;;0.40;66.40;;;;;;5000328;28;21120;-83
2022/03/08 07:07:44;;;;;;;26.50;15.10;;;0.50;66.40;;;;;;4984849;28;20681;-86
2022/03/08 07:10:11;;;;;;;21.50;14.52;;;0.50;66.20;;;;;;4985248;28;20234;-83
2022/03/08 07:12:39;;;;;;;26.70;14.82;;;0.50;66.10;;;;;;4985288;28;20206;-86
2022/03/08 07:15:09;;;;;;;20.33;13.32;;;0.50;66.20;;;;;;4984271;28;20210;-84
2022/03/08 07:17:37;;;;;;;24.77;14.50;;;0.50;66.30;;;;;;4997947;28;20803;-84
2022/03/08 07:20:07;;;;;;;19.67;14.02;;;0.50;66.30;;;;;;5000037;28;20218;-84
2022/03/08 07:22:36;;;;;;;23.58;14.75;;;0.50;66.40;;;;;;4983732;28;20209;-85
2022/03/08 07:25:04;;;;;;;17.80;13.43;;;0.60;66.50;;;;;;4998454;28;20199;-85
2022/03/08 07:27:32;;;;;;;23.92;13.43;;;0.60;66.60;;;;;;4984856;28;20617;-85
2022/03/08 07:30:02;;;;;;;20.45;13.57;;;0.70;66.90;;;;;;4991105;28;20221;-85
2022/03/08 07:32:32;;;;;;;17.92;12.95;;;0.70;66.80;;;;;;4997634;28;20234;-85
2022/03/08 07:35:00;;;;;;;20.35;13.77;;;0.70;66.90;;;;;;4988860;28;20218;-87
2022/03/08 07:37:28;;;;;;;23.52;14.52;;;0.80;67.10;;;;;;4983552;28;20213;-87
2022/03/08 07:39:55;;;;;;;20.00;12.90;;;0.80;67.00;;;;;;4985441;28;20219;-83
2022/03/08 07:42:25;;;;;;;24.52;13.32;;;0.80;67.10;;;;;;4984927;28;20214;-85
2022/03/08 07:44:53;;;;;;;22.65;13.65;;;0.90;67.20;;;;;;4985396;28;20222;-84
2022/03/08 07:47:21;;;;;;;22.65;14.75;;;1.00;67.20;;;;;;4987647;28;20281;-86
2022/03/08 07:49:51;;;;;;;19.10;13.60;;;1.00;67.30;;;;;;5003321;28;20288;-85
2022/03/08 07:52:20;;;;;;;24.63;16.77;;;1.10;67.40;;;;;;5003232;28;20773;-86
2022/03/08 07:54:48;;;;;;;164.93;77.95;;;1.10;67.40;;;;;;5003156;28;20199;-84
2022/03/08 07:57:16;;;;;;;53.45;31.88;;;1.20;67.50;;;;;;4989346;28;20203;-84
2022/03/08 07:59:44;;;;;;;29.63;16.98;;;1.20;67.60;;;;;;4989437;28;20215;-84
2022/03/08 08:02:12;;;;;;;25.08;15.75;;;1.30;67.60;;;;;;5004458;28;20237;-87
2022/03/08 08:04:40;;;;;;;23.08;15.13;;;1.40;67.70;;;;;;5003411;28;20684;-84
2022/03/08 08:07:10;;;;;;;21.50;14.13;;;1.40;67.70;;;;;;5006053;28;20211;-86
2022/03/08 08:09:38;;;;;;;25.90;13.88;;;1.50;67.80;;;;;;4991857;28;20225;-86
2022/03/08 08:12:08;;;;;;;21.20;13.25;;;1.60;67.90;;;;;;5007972;28;20281;-87
2022/03/08 08:14:36;;;;;;;19.60;12.70;;;1.60;67.70;;;;;;4992002;28;20213;-85
2022/03/08 08:17:04;;;;;;;21.80;13.30;;;1.70;67.80;;;;;;4994744;28;20226;-85
2022/03/08 08:19:32;;;;;;;18.90;12.63;;;1.80;67.80;;;;;;4996342;28;20341;-87
2022/03/08 08:22:00;;;;;;;19.45;12.55;;;1.80;67.80;;;;;;4995926;28;20261;-84
2022/03/08 08:24:29;;;;;;;24.25;13.65;;;1.90;67.80;;;;;;5008411;28;20214;-84
2022/03/08 08:26:57;;;;;;;19.73;12.57;;;1.90;68.00;;;;;;4990471;28;20210;-85
2022/03/08 08:29:25;;;;;;;21.52;14.13;;;2.00;67.90;;;;;;4989574;28;20276;-84
2022/03/08 08:31:53;;;;;;;19.08;12.07;;;2.10;67.90;;;;;;4987827;28;20235;-83
2022/03/08 08:34:21;;;;;;;19.08;12.38;;;2.10;67.90;;;;;;4983023;28;20183;-84
2022/03/08 08:36:49;;;;;;;17.40;12.60;;;2.20;67.90;;;;;;4987344;28;20307;-84
2022/03/08 08:39:22;;;;;;;18.30;12.77;;;2.30;67.90;;;;;;4988650;28;20321;-85
2022/03/08 08:41:51;;;;;;;19.50;12.13;;;2.30;67.90;;;;;;5003331;28;20207;-85
2022/03/08 08:44:19;;;;;;;18.30;12.80;;;2.30;67.90;;;;;;4986498;28;20207;-86
2022/03/08 08:46:48;;;;;;;17.77;12.55;;;2.40;67.90;;;;;;4993160;28;20809;-84
2022/03/08 08:49:16;;;;;;;18.80;13.02;;;2.40;68.00;;;;;;4988810;28;20241;-86
2022/03/08 08:51:44;;;;;;;21.77;14.82;;;2.50;68.00;;;;;;4988364;28;20261;-87
2022/03/08 08:54:12;;;;;;;19.10;12.65;;;2.50;68.00;;;;;;4987044;28;20321;-86
2022/03/08 08:56:40;;;;;;;20.35;13.68;;;2.60;68.10;;;;;;5001941;28;20273;-87
2022/03/08 08:59:10;;;;;;;22.90;13.45;;;2.70;68.40;;;;;;4991343;28;20222;-86
2022/03/08 09:01:38;;;;;;;18.52;12.77;;;2.90;68.50;;;;;;4999522;28;20235;-86
2022/03/08 09:04:06;;;;;;;22.10;15.75;;;3.00;68.60;;;;;;5002756;28;20294;-86
2022/03/08 09:06:35;;;;;;;18.35;13.30;;;3.10;68.60;;;;;;5001628;28;20285;-85
2022/03/08 09:09:03;;;;;;;18.33;12.30;;;3.30;68.50;;;;;;4986778;28;20350;-85
2022/03/08 09:11:36;;;;;;;15.18;12.07;;;3.40;68.40;;;;;;5003558;28;20221;-84
2022/03/08 09:14:04;;;;;;;18.95;12.52;;;3.50;68.30;;;;;;4987737;28;20207;-84
2022/03/08 09:16:33;;;;;;;18.17;12.80;;;3.60;68.30;;;;;;4998887;28;20724;-84
2022/03/08 09:19:02;;;;;;;19.40;12.68;;;3.70;68.40;;;;;;4987256;28;20237;-87
2022/03/08 09:21:29;;;;;;;17.13;10.50;;;3.90;68.20;;;;;;4985592;28;20273;-84
2022/03/08 09:23:57;;;;;;;16.60;11.38;;;4.00;67.90;;;;;;4986126;28;20217;-84
2022/03/08 09:26:25;;;;;;;16.50;10.77;;;4.10;67.70;;;;;;4987019;28;20198;-87
2022/03/08 09:28:53;;;;;;;16.45;11.65;;;4.20;67.30;;;;;;5001797;28;20225;-86
2022/03/08 09:31:21;;;;;;;19.50;11.50;;;4.20;67.30;;;;;;4986338;28;20242;-85
2022/03/08 09:33:51;;;;;;;23.20;12.13;;;4.30;67.00;;;;;;5001492;28;20237;-87
2022/03/08 09:36:19;;;;;;;17.30;11.95;;;4.40;66.90;;;;;;4989643;28;20210;-87
2022/03/08 09:38:58;;;;;;;26.63;14.43;;;4.40;67.10;;;;;;4982240;28;20292;-86
2022/03/08 09:41:26;;;;;;;17.70;11.85;;;4.50;66.50;;;;;;4987091;28;20191;-85
2022/03/08 09:43:55;;;;;;;31.83;18.60;;;4.50;66.30;;;;;;4984903;28;20207;-88
2022/03/08 09:46:23;;;;;;;16.65;10.75;;;4.60;66.30;;;;;;4996886;28;20222;-86
2022/03/08 09:48:52;;;;;;;18.20;11.27;;;4.70;66.20;;;;;;5001311;28;20762;-86
2022/03/08 09:51:21;;;;;;;17.67;10.45;;;4.80;65.50;;;;;;4983253;28;20218;-86
2022/03/08 09:53:53;;;;;;;18.30;11.68;;;4.80;65.30;;;;;;5000648;28;20210;-86
2022/03/08 09:56:21;;;;;;;15.73;10.35;;;4.90;65.50;;;;;;4986412;28;20207;-87
2022/03/08 09:58:49;;;;;;;17.15;11.43;;;4.90;65.30;;;;;;5001338;28;20230;-87
2022/03/08 10:01:17;;;;;;;19.42;10.45;;;5.00;65.40;;;;;;4998724;28;20237;-84
2022/03/08 10:03:46;;;;;;;16.95;10.00;;;5.00;65.30;;;;;;4985126;28;20210;-86
2022/03/08 10:06:16;;;;;;;13.00;8.73;;;5.10;65.10;;;;;;4986254;28;20386;-86
2022/03/08 10:08:44;;;;;;;13.52;9.60;;;5.20;64.70;;;;;;5000359;28;20762;-86
2022/03/08 10:11:14;;;;;;;10.63;8.10;;;5.20;64.30;;;;;;4979648;28;20268;-86
2022/03/08 10:13:50;;;;;;;12.10;7.65;;;5.30;63.50;;;;;;5000432;28;20706;-85
2022/03/08 10:16:23;;;;;;;12.38;8.00;;;5.30;63.30;;;;;;5000426;28;20231;-85
2022/03/08 10:18:53;;;;;;;15.52;9.65;;;5.40;63.40;;;;;;5001471;28;20337;-86
2022/03/08 10:21:31;;;;;;;15.65;9.50;;;5.40;63.20;;;;;;4984598;28;20703;-87
2022/03/08 10:24:01;;;;;;;17.63;8.95;;;5.40;63.20;;;;;;5000827;28;20202;-87
2022/03/08 10:26:29;;;;;;;15.68;9.73;;;5.40;62.40;;;;;;4986596;28;20202;-86
2022/03/08 10:28:59;;;;;;;13.60;9.00;;;5.40;62.40;;;;;;4985771;28;20223;-85
2022/03/08 10:31:27;;;;;;;12.57;8.38;;;5.40;62.40;;;;;;4985720;28;20233;-86
2022/03/08 10:34:05;;;;;;;14.07;9.18;;;5.50;62.00;;;;;;5000930;28;20209;-85
2022/03/08 10:36:37;;;;;;;13.95;8.85;;;5.60;62.00;;;;;;4985718;28;20202;-85
2022/03/08 10:39:11;;;;;;;19.05;8.45;;;5.60;61.30;;;;;;4987652;28;20246;-86
2022/03/08 10:41:47;;;;;;;12.38;8.68;;;5.70;62.00;;;;;;5001808;28;20679;-85
2022/03/08 10:44:15;;;;;;;12.13;8.05;;;5.70;60.90;;;;;;5001588;28;20675;-85
2022/03/08 10:46:43;;;;;;;13.88;8.63;;;5.80;60.80;;;;;;4986485;28;20226;-85
2022/03/08 10:49:12;;;;;;;11.07;7.13;;;5.90;60.50;;;;;;5002643;28;20269;-86
2022/03/08 10:51:42;;;;;;;13.18;7.05;;;5.90;60.00;;;;;;5002291;28;20223;-85
2022/03/08 10:58:12;;;;;;;13.57;7.57;;;6.00;60.10;;;;;;4987003;28;20182;-87
2022/03/08 11:00:42;;;;;;;12.25;7.25;;;6.10;59.50;;;;;;4986290;28;20230;-87
2022/03/08 11:03:11;;;;;;;13.45;8.18;;;6.10;58.80;;;;;;4986299;28;20501;-86
2022/03/08 11:05:44;;;;;;;12.23;6.82;;;6.20;58.60;;;;;;4987257;28;20193;-87
2022/03/08 11:08:15;;;;;;;15.65;7.15;;;6.20;57.90;;;;;;4986822;28;20229;-86
2022/03/08 11:10:44;;;;;;;10.90;6.70;;;6.30;57.40;;;;;;4986764;28;20206;-85
2022/03/08 11:13:14;;;;;;;9.68;6.30;;;6.30;57.20;;;;;;4986529;28;20261;-85
2022/03/08 11:15:51;;;;;;;11.98;8.00;;;6.40;57.20;;;;;;4990807;28;20239;-86
2022/03/08 11:18:19;;;;;;;13.52;7.10;;;6.40;56.50;;;;;;4985406;28;20341;-85
2022/03/08 11:20:49;;;;;;;11.38;7.40;;;6.40;56.30;;;;;;5004298;28;20769;-86
2022/03/08 11:23:18;;;;;;;12.60;8.00;;;6.50;56.50;;;;;;4987398;28;20211;-87
2022/03/08 11:25:47;;;;;;;14.30;8.20;;;6.50;56.20;;;;;;4988199;28;20202;-86
2022/03/08 11:28:19;;;;;;;11.80;7.65;;;6.60;56.20;;;;;;4989368;28;20195;-85
2022/03/08 11:30:50;;;;;;;13.75;7.45;;;6.60;56.40;;;;;;5004993;28;20272;-86
2022/03/08 11:33:31;;;;;;;11.15;7.00;;;6.70;56.20;;;;;;4990493;28;20711;-87
2022/03/08 11:36:07;;;;;;;12.50;7.60;;;6.80;56.30;;;;;;4991220;28;20547;-85
2022/03/08 11:38:36;;;;;;;14.00;8.13;;;6.80;55.80;;;;;;5006607;28;20907;-85
2022/03/08 11:41:04;;;;;;;12.23;7.72;;;6.80;55.80;;;;;;5006013;28;20373;-86
2022/03/08 11:43:45;;;;;;;13.88;7.78;;;6.90;55.70;;;;;;5006202;28;20419;-86
2022/03/08 11:46:15;;;;;;;13.45;7.13;;;6.80;55.80;;;;;;4993301;28;20257;-87
2022/03/08 11:48:52;;;;;;;11.73;7.70;;;6.90;55.50;;;;;;5012490;28;20288;-87
2022/03/08 11:51:20;;;;;;;11.80;8.13;;;6.90;55.70;;;;;;4996294;28;20473;-88
2022/03/08 11:54:00;;;;;;;15.27;8.10;;;7.00;56.00;;;;;;5010923;28;20214;-87
2022/03/08 11:56:28;;;;;;;10.18;7.50;;;7.00;55.70;;;;;;4992760;28;20205;-86
2022/03/08 11:59:09;;;;;;;15.27;8.45;;;7.10;55.60;;;;;;4990840;28;20235;-87
2022/03/08 12:01:38;;;;;;;11.63;8.33;;;7.10;55.30;;;;;;4993964;28;20233;-87
2022/03/08 12:04:09;;;;;;;13.93;8.55;;;7.10;55.30;;;;;;4987552;28;20446;-86
2022/03/08 12:06:39;;;;;;;14.48;8.45;;;7.10;54.90;;;;;;5004380;28;20203;-86
2022/03/08 12:09:13;;;;;;;12.52;8.77;;;7.20;55.30;;;;;;5004043;28;20710;-85
2022/03/08 12:11:47;;;;;;;13.38;8.95;;;7.20;54.80;;;;;;5004713;28;20601;-85
2022/03/08 12:14:25;;;;;;;14.27;8.65;;;7.20;54.70;;;;;;5001486;28;20214;-85
2022/03/08 12:17:07;;;;;;;12.45;8.55;;;7.20;54.60;;;;;;4986103;28;20242;-86
2022/03/08 12:19:37;;;;;;;13.27;7.85;;;7.20;54.70;;;;;;5003564;28;20226;-86
2022/03/08 12:22:10;;;;;;;10.68;7.25;;;7.20;54.40;;;;;;4985941;28;20194;-86
2022/03/08 12:24:43;;;;;;;11.40;7.22;;;7.30;54.70;;;;;;4991724;28;20290;-86
2022/03/08 12:27:12;;;;;;;13.07;7.53;;;7.40;53.70;;;;;;4988606;28;20636;-85
2022/03/08 12:30:01;;;;;;;14.60;6.90;;;7.40;54.30;;;;;;5003593;28;20321;-86
2022/03/08 12:32:34;;;;;;;11.00;6.27;;;7.50;53.30;;;;;;4987084;28;20490;-86
2022/03/08 12:35:08;;;;;;;11.43;6.10;;;7.50;53.50;;;;;;4988644;28;21022;-85
2022/03/08 12:37:43;;;;;;;17.37;6.73;;;7.60;53.50;;;;;;5002755;28;20493;-85
2022/03/08 12:40:27;;;;;;;10.80;6.90;;;7.60;53.50;;;;;;4986018;28;20501;-85
2022/03/08 12:42:57;;;;;;;9.82;5.97;;;7.60;53.30;;;;;;5001404;28;20214;-85
2022/03/08 12:45:27;;;;;;;11.32;7.22;;;7.60;53.20;;;;;;4987224;28;20347;-86
2022/03/08 12:47:58;;;;;;;15.75;7.22;;;7.60;52.90;;;;;;4987093;28;20206;-86
2022/03/08 12:50:29;;;;;;;11.87;6.90;;;7.60;52.70;;;;;;4998563;28;20719;-86
2022/03/08 12:53:00;;;;;;;11.90;7.55;;;7.60;52.70;;;;;;5001789;28;20548;-86